createdAt,value
2018-12-20T00:00:35.135Z,11.40
2018-12-20T00:03:03.769Z,12.70
2018-12-20T00:05:32.544Z,15.33
2018-12-20T00:08:02.149Z,16.33
2018-12-20T00:10:30.989Z,16.67
2018-12-20T00:12:59.578Z,16.03
2018-12-20T00:15:28.314Z,16.00
2018-12-20T00:17:57.155Z,15.37
2018-12-20T00:20:26.065Z,15.00
2018-12-20T00:22:54.771Z,15.47
2018-12-20T00:25:23.725Z,15.27
2018-12-20T00:27:52.771Z,14.40
2018-12-20T00:30:21.303Z,15.60
2018-12-20T00:32:50.114Z,14.63
2018-12-20T00:35:18.918Z,14.00
2018-12-20T00:37:48.864Z,14.10
2018-12-20T00:40:17.842Z,14.80
2018-12-20T00:42:48.020Z,15.07
2018-12-20T00:45:16.617Z,15.33
2018-12-20T00:47:45.375Z,15.37
2018-12-20T00:50:14.115Z,16.47
2018-12-20T00:52:42.799Z,16.63
2018-12-20T00:55:11.607Z,15.87
2018-12-20T00:57:40.804Z,14.57
2018-12-20T01:00:10.462Z,15.23
2018-12-20T01:02:39.570Z,15.03
2018-12-20T01:05:08.212Z,16.60
2018-12-20T01:07:36.982Z,16.57
2018-12-20T01:10:06.425Z,16.00
2018-12-20T01:12:35.312Z,15.30
2018-12-20T01:15:04.636Z,15.50
2018-12-20T01:17:39.445Z,16.67
2018-12-20T01:20:09.774Z,17.03
2018-12-20T01:22:38.603Z,16.53
2018-12-20T01:25:07.767Z,14.30
2018-12-20T01:27:36.788Z,13.13
2018-12-20T01:30:06.255Z,13.50
2018-12-20T01:32:35.147Z,14.40
2018-12-20T01:35:04.729Z,14.33
2018-12-20T01:37:33.563Z,12.77
2018-12-20T01:40:02.585Z,13.50
2018-12-20T01:42:31.443Z,14.30
2018-12-20T01:45:00.263Z,14.13
2018-12-20T01:47:28.888Z,13.47
2018-12-20T01:49:57.688Z,13.87
2018-12-20T01:52:26.592Z,14.37
2018-12-20T01:54:55.435Z,14.00
2018-12-20T01:57:24.298Z,14.30
2018-12-20T01:59:53.034Z,13.13
2018-12-20T02:02:21.879Z,14.03
2018-12-20T02:04:50.442Z,13.57
2018-12-20T02:07:19.505Z,12.73
2018-12-20T02:09:48.310Z,13.40
2018-12-20T02:12:17.321Z,12.13
2018-12-20T02:14:46.057Z,11.77
2018-12-20T02:17:14.676Z,11.53
2018-12-20T02:19:43.551Z,12.20
2018-12-20T02:22:12.318Z,11.83
2018-12-20T02:24:40.853Z,12.10
2018-12-20T02:27:09.570Z,10.80
2018-12-20T02:29:38.493Z,11.80
2018-12-20T02:32:07.357Z,11.70
2018-12-20T02:34:36.082Z,11.10
2018-12-20T02:37:04.989Z,11.00
2018-12-20T02:39:33.782Z,13.83
2018-12-20T02:42:02.503Z,16.27
2018-12-20T02:44:32.024Z,17.20
2018-12-20T02:47:00.680Z,13.83
2018-12-20T02:49:29.254Z,19.30
2018-12-20T02:51:58.368Z,13.40
2018-12-20T02:54:27.091Z,11.83
2018-12-20T02:56:55.924Z,17.03
2018-12-20T02:59:24.746Z,14.40
2018-12-20T03:01:53.421Z,11.73
2018-12-20T03:04:22.402Z,11.20
2018-12-20T03:06:51.223Z,12.30
2018-12-20T03:09:19.625Z,14.73
2018-12-20T03:11:48.360Z,13.93
2018-12-20T03:14:17.045Z,13.33
2018-12-20T03:16:46.298Z,13.30
2018-12-20T03:19:15.010Z,11.00
2018-12-20T03:21:43.851Z,9.60
2018-12-20T03:24:12.976Z,10.03
2018-12-20T03:26:42.096Z,10.00
2018-12-20T03:29:11.016Z,16.60
2018-12-20T03:31:39.509Z,17.30
2018-12-20T03:34:08.262Z,26.13
2018-12-20T03:36:36.972Z,19.13
2018-12-20T03:39:07.791Z,16.97
2018-12-20T03:41:37.293Z,14.23
2018-12-20T03:44:06.465Z,13.23
2018-12-20T03:46:35.608Z,14.23
2018-12-20T03:49:05.046Z,15.33
2018-12-20T03:51:33.984Z,12.97
2018-12-20T03:54:03.149Z,11.07
2018-12-20T03:56:31.828Z,10.30
2018-12-20T03:59:00.979Z,10.83
2018-12-20T04:01:30.129Z,9.50
2018-12-20T04:03:58.970Z,9.07
2018-12-20T04:06:27.607Z,8.33
2018-12-20T04:08:56.187Z,8.40
2018-12-20T04:11:25.074Z,9.00
2018-12-20T04:13:53.955Z,9.60
2018-12-20T04:16:22.821Z,10.03
2018-12-20T04:18:51.660Z,10.23
2018-12-20T04:21:20.480Z,10.00
2018-12-20T04:23:49.564Z,9.87
2018-12-20T04:26:18.459Z,9.63
2018-12-20T04:28:47.097Z,9.33
2018-12-20T04:31:15.729Z,8.40
2018-12-20T04:33:44.366Z,8.07
2018-12-20T04:36:13.117Z,7.53
2018-12-20T04:38:42.102Z,7.27
2018-12-20T04:41:11.225Z,7.20
2018-12-20T04:43:40.200Z,7.50
2018-12-20T04:46:09.046Z,7.63
2018-12-20T04:48:37.750Z,7.20
2018-12-20T04:51:06.394Z,7.23
2018-12-20T04:53:35.224Z,8.03
2018-12-20T04:56:03.956Z,7.73
2018-12-20T04:58:32.684Z,6.70
2018-12-20T05:01:01.408Z,7.67
2018-12-20T05:03:30.753Z,7.40
2018-12-20T05:05:59.380Z,7.53
2018-12-20T05:08:27.915Z,6.77
2018-12-20T05:10:56.450Z,7.53
2018-12-20T05:13:24.986Z,7.33
2018-12-20T05:15:56.504Z,7.60
2018-12-20T05:18:24.235Z,7.80
2018-12-20T05:20:53.033Z,7.97
2018-12-20T05:23:22.101Z,8.00
2018-12-20T05:25:51.119Z,9.60
2018-12-20T05:28:20.241Z,12.50
2018-12-20T05:30:48.876Z,10.10
2018-12-20T05:33:17.802Z,37.50
2018-12-20T05:35:46.738Z,83.67
2018-12-20T05:38:15.299Z,67.50
2018-12-20T05:40:44.057Z,61.73
2018-12-20T05:43:12.889Z,43.40
2018-12-20T05:45:42.065Z,67.70
2018-12-20T05:48:10.661Z,36.23
2018-12-20T05:50:39.535Z,40.63
2018-12-20T05:53:08.076Z,51.30
2018-12-20T05:55:36.802Z,29.20
2018-12-20T05:58:05.314Z,19.50
2018-12-20T06:00:34.077Z,17.77
2018-12-20T06:03:02.711Z,16.43
2018-12-20T06:05:31.461Z,18.00
2018-12-20T06:08:00.575Z,16.27
2018-12-20T06:10:29.532Z,29.50
2018-12-20T06:12:58.298Z,18.53
2018-12-20T06:15:27.067Z,13.60
2018-12-20T06:17:56.116Z,12.57
2018-12-20T06:20:24.895Z,13.20
2018-12-20T06:22:53.562Z,12.87
2018-12-20T06:25:22.198Z,12.30
2018-12-20T06:27:50.945Z,13.00
2018-12-20T06:30:19.666Z,13.23
2018-12-20T06:32:48.279Z,11.57
2018-12-20T06:35:16.809Z,12.30
2018-12-20T06:37:45.379Z,10.27
2018-12-20T06:40:14.011Z,10.20
2018-12-20T06:42:42.647Z,8.00
2018-12-20T06:45:11.286Z,7.57
2018-12-20T06:47:39.916Z,6.50
2018-12-20T06:50:08.673Z,7.70
2018-12-20T06:52:37.495Z,8.73
2018-12-20T06:55:06.808Z,22.80
2018-12-20T06:57:35.603Z,26.87
2018-12-20T07:00:06.462Z,18.20
2018-12-20T07:02:35.162Z,13.40
2018-12-20T07:05:04.107Z,9.20
2018-12-20T07:07:32.735Z,6.80
2018-12-20T07:10:01.288Z,8.23
2018-12-20T07:12:30.009Z,15.00
2018-12-20T07:14:58.956Z,21.17
2018-12-20T07:17:27.670Z,20.57
2018-12-20T07:19:56.235Z,19.50
2018-12-20T07:22:24.941Z,17.07
2018-12-20T07:24:53.578Z,17.07
2018-12-20T07:27:22.212Z,14.80
2018-12-20T07:29:50.850Z,15.87
2018-12-20T07:32:25.150Z,13.43
2018-12-20T07:34:50.059Z,16.03
2018-12-20T07:37:18.720Z,13.10
2018-12-20T07:39:47.321Z,14.27
2018-12-20T07:42:15.993Z,12.23
2018-12-20T07:44:44.555Z,12.40
2018-12-20T07:47:13.356Z,12.43
2018-12-20T07:49:42.018Z,16.07
2018-12-20T07:52:10.709Z,14.23
2018-12-20T07:54:39.523Z,15.37
2018-12-20T07:57:08.065Z,16.23
2018-12-20T07:59:36.705Z,15.13
2018-12-20T08:02:05.863Z,14.13
2018-12-20T08:04:34.500Z,15.07
2018-12-20T08:07:03.209Z,14.33
2018-12-20T08:09:31.927Z,13.83
2018-12-20T08:12:00.598Z,14.70
2018-12-20T08:14:29.234Z,14.90
2018-12-20T08:16:57.777Z,17.43
2018-12-20T08:19:26.507Z,14.60
2018-12-20T08:21:55.140Z,14.67
2018-12-20T08:24:24.105Z,15.70
2018-12-20T08:26:52.673Z,14.97
2018-12-20T08:29:21.542Z,14.80
2018-12-20T08:31:50.469Z,15.60
2018-12-20T08:34:19.108Z,17.30
2018-12-20T08:36:47.669Z,20.37
2018-12-20T08:39:16.377Z,20.07
2018-12-20T08:41:45.207Z,16.23
2018-12-20T08:44:13.969Z,12.97
2018-12-20T08:46:44.507Z,10.93
2018-12-20T08:49:13.252Z,9.30
2018-12-20T08:51:48.883Z,8.43
2018-12-20T08:54:12.638Z,7.73
2018-12-20T08:56:41.346Z,7.73
2018-12-20T08:59:09.980Z,6.60
2018-12-20T09:01:38.813Z,6.70
2018-12-20T09:04:07.448Z,6.93
2018-12-20T09:06:36.278Z,6.70
2018-12-20T09:09:07.276Z,5.70
2018-12-20T09:11:35.838Z,6.77
2018-12-20T09:14:04.477Z,6.30
2018-12-20T09:16:33.181Z,6.10
2018-12-20T09:19:02.017Z,6.80
2018-12-20T09:21:30.850Z,6.73
2018-12-20T09:23:59.479Z,6.37
2018-12-20T09:26:28.115Z,6.10
2018-12-20T09:28:56.757Z,6.33
2018-12-20T09:31:25.294Z,7.33
2018-12-20T09:33:54.023Z,6.80
2018-12-20T09:36:22.661Z,6.90
2018-12-20T09:38:51.296Z,7.57
2018-12-20T09:41:19.928Z,7.73
2018-12-20T09:43:48.482Z,6.80
2018-12-20T09:46:17.004Z,8.10
2018-12-20T09:48:46.402Z,6.80
2018-12-20T09:51:15.453Z,7.20
2018-12-20T09:53:44.002Z,7.10
2018-12-20T09:56:12.727Z,7.00
2018-12-20T09:58:41.335Z,5.97
2018-12-20T10:01:09.996Z,5.97
2018-12-20T10:03:38.633Z,5.90
2018-12-20T10:06:07.268Z,5.13
2018-12-20T10:08:35.768Z,5.40
2018-12-20T10:11:04.538Z,5.70
2018-12-20T10:13:33.172Z,6.00
2018-12-20T10:16:01.686Z,6.03
2018-12-20T10:18:30.426Z,7.60
2018-12-20T10:20:59.141Z,12.73
2018-12-20T10:23:27.886Z,8.03
2018-12-20T10:25:56.851Z,7.70
2018-12-20T10:28:25.575Z,7.50
2018-12-20T10:30:54.214Z,8.27
2018-12-20T10:33:22.846Z,7.13
2018-12-20T10:35:51.269Z,8.20
2018-12-20T10:38:20.090Z,7.97
2018-12-20T10:40:48.952Z,8.40
2018-12-20T10:43:17.585Z,6.73
2018-12-20T10:45:46.415Z,5.63
2018-12-20T10:48:15.009Z,5.40
2018-12-20T10:50:43.674Z,5.40
2018-12-20T10:53:12.323Z,5.37
2018-12-20T10:55:41.157Z,4.43
2018-12-20T10:58:09.789Z,4.00
2018-12-20T11:00:43.932Z,4.20
2018-12-20T11:03:18.070Z,4.00
2018-12-20T11:05:52.087Z,4.80
2018-12-20T11:08:23.600Z,3.67
2018-12-20T11:10:54.268Z,5.10
2018-12-20T11:13:26.375Z,6.93
2018-12-20T11:15:54.929Z,9.90
2018-12-20T11:18:23.564Z,5.90
2018-12-20T11:20:52.265Z,5.17
2018-12-20T11:23:20.919Z,5.63
2018-12-20T11:25:49.747Z,6.23
2018-12-20T11:28:18.382Z,5.27
2018-12-20T11:30:47.128Z,5.40
2018-12-20T11:33:15.793Z,4.50
2018-12-20T11:35:44.486Z,4.83
2018-12-20T11:38:13.054Z,4.63
2018-12-20T11:40:41.661Z,4.40
2018-12-20T11:43:10.397Z,4.23
2018-12-20T11:45:38.957Z,4.40
2018-12-20T11:48:07.628Z,4.37
2018-12-20T11:50:36.302Z,4.37
2018-12-20T11:53:05.130Z,4.27
2018-12-20T11:55:33.766Z,3.73
2018-12-20T11:58:02.591Z,3.70
2018-12-20T12:00:33.358Z,3.80
2018-12-20T12:03:01.976Z,3.50
2018-12-20T12:05:30.594Z,4.00
2018-12-20T12:07:59.176Z,3.57
2018-12-20T12:10:27.609Z,3.43
2018-12-20T12:12:56.376Z,3.47
2018-12-20T12:15:26.530Z,2.90
2018-12-20T12:17:55.381Z,3.30
2018-12-20T12:20:24.143Z,5.00
2018-12-20T12:22:52.884Z,3.20
2018-12-20T12:25:21.432Z,2.70
2018-12-20T12:27:50.353Z,3.57
2018-12-20T12:30:19.172Z,3.50
2018-12-20T12:32:47.819Z,2.30
2018-12-20T12:35:17.376Z,2.10
2018-12-20T12:37:46.074Z,2.10
2018-12-20T12:40:14.577Z,2.47
2018-12-20T12:42:43.256Z,2.17
2018-12-20T12:45:11.784Z,1.97
2018-12-20T12:47:45.987Z,2.17
2018-12-20T12:50:14.562Z,2.13
2018-12-20T12:52:43.122Z,1.93
2018-12-20T12:55:11.793Z,2.20
2018-12-20T12:57:40.433Z,2.00
2018-12-20T13:00:13.749Z,2.20
2018-12-20T13:02:42.415Z,2.10
2018-12-20T13:05:11.088Z,2.30
2018-12-20T13:07:39.655Z,1.80
2018-12-20T13:10:08.675Z,1.83
2018-12-20T13:12:37.391Z,2.03
2018-12-20T13:15:11.135Z,1.73
2018-12-20T13:17:39.772Z,1.80
2018-12-20T13:20:10.240Z,1.80
2018-12-20T13:22:38.980Z,2.13
2018-12-20T13:25:07.751Z,1.93
2018-12-20T13:27:36.389Z,1.93
2018-12-20T13:30:09.561Z,1.97
2018-12-20T13:32:38.201Z,1.80
2018-12-20T13:35:07.019Z,2.23
2018-12-20T13:37:35.737Z,3.13
2018-12-20T13:40:06.200Z,10.60
2018-12-20T13:42:34.770Z,6.90
2018-12-20T13:45:03.609Z,5.77
2018-12-20T13:47:33.585Z,2.20
2018-12-20T13:50:02.371Z,1.60
2018-12-20T13:52:32.927Z,1.90
2018-12-20T13:55:01.607Z,1.80
2018-12-20T13:57:30.248Z,1.97
2018-12-20T13:59:58.894Z,1.83
2018-12-20T14:02:27.593Z,2.00
2018-12-20T14:04:56.443Z,2.23
2018-12-20T14:07:25.258Z,3.30
2018-12-20T14:09:53.760Z,1.90
2018-12-20T14:17:08.126Z,2.20
2018-12-20T14:19:36.837Z,2.10
2018-12-20T14:22:05.472Z,1.63
2018-12-20T14:24:33.976Z,1.90
2018-12-20T14:27:02.742Z,2.00
2018-12-20T14:29:33.513Z,1.90
2018-12-20T14:32:02.099Z,2.40
2018-12-20T14:34:30.781Z,1.90
2018-12-20T14:36:59.420Z,2.10
2018-12-20T14:39:28.082Z,1.90
2018-12-20T14:41:56.717Z,1.83
2018-12-20T14:44:25.550Z,1.43
2018-12-20T14:46:53.982Z,1.80
2018-12-20T14:49:22.595Z,2.10
2018-12-20T14:51:51.135Z,2.10
2018-12-20T14:54:19.893Z,2.83
2018-12-20T14:56:48.527Z,2.77
2018-12-20T14:59:17.168Z,2.00
2018-12-20T15:01:45.923Z,2.20
2018-12-20T15:04:14.631Z,2.93
2018-12-20T15:06:43.149Z,1.90
2018-12-20T15:09:11.772Z,1.90
2018-12-20T15:11:40.408Z,2.20
2018-12-20T15:14:08.901Z,2.20
2018-12-20T15:16:37.534Z,3.70
2018-12-20T15:19:06.049Z,6.63
2018-12-20T15:21:34.792Z,5.87
2018-12-20T15:24:03.516Z,11.27
2018-12-20T15:26:32.152Z,8.40
2018-12-20T15:29:00.714Z,6.93
2018-12-20T15:31:29.350Z,6.43
2018-12-20T15:33:57.992Z,3.30
2018-12-20T15:36:26.693Z,2.43
2018-12-20T15:38:55.329Z,2.60
2018-12-20T15:41:23.964Z,2.97
2018-12-20T15:43:52.527Z,2.87
2018-12-20T15:46:22.229Z,3.17
2018-12-20T15:48:56.413Z,3.20
2018-12-20T15:51:24.037Z,3.50
2018-12-20T15:53:52.656Z,3.90
2018-12-20T15:56:21.248Z,3.50
2018-12-20T15:58:49.888Z,5.40
2018-12-20T16:01:18.484Z,4.67
2018-12-20T16:03:47.055Z,4.17
2018-12-20T16:06:15.822Z,3.87
2018-12-20T16:08:44.458Z,4.17
2018-12-20T16:11:13.093Z,2.87
2018-12-20T16:13:41.924Z,3.00
2018-12-20T16:16:10.471Z,3.10
2018-12-20T16:18:39.158Z,2.90
2018-12-20T16:21:07.831Z,2.80
2018-12-20T16:23:36.466Z,3.37
2018-12-20T16:26:05.298Z,2.40
2018-12-20T16:28:34.141Z,2.80
2018-12-20T16:31:02.860Z,2.30
2018-12-20T16:33:31.598Z,2.50
2018-12-20T16:36:00.168Z,1.70
2018-12-20T16:38:28.873Z,1.77
2018-12-20T16:40:57.547Z,1.60
2018-12-20T16:43:26.284Z,1.90
2018-12-20T16:45:54.970Z,1.70
2018-12-20T16:48:24.590Z,2.10
2018-12-20T16:50:53.229Z,1.93
2018-12-20T16:53:22.068Z,1.90
2018-12-20T16:55:50.539Z,1.93
2018-12-20T16:58:19.300Z,1.93
2018-12-20T17:00:48.162Z,2.33
2018-12-20T17:03:16.991Z,2.87
2018-12-20T17:05:45.823Z,3.50
2018-12-20T17:08:14.385Z,4.93
2018-12-20T17:10:43.093Z,4.47
2018-12-20T17:13:11.594Z,3.73
2018-12-20T17:15:40.169Z,5.17
2018-12-20T17:18:09.117Z,12.90
2018-12-20T17:20:37.681Z,13.67
2018-12-20T17:23:06.335Z,16.30
2018-12-20T17:25:35.102Z,19.03
2018-12-20T17:28:03.739Z,15.50
2018-12-20T17:30:32.251Z,13.97
2018-12-20T17:33:00.816Z,11.40
2018-12-20T17:35:29.447Z,9.20
2018-12-20T17:37:58.087Z,8.20
2018-12-20T17:40:28.806Z,7.60
2018-12-20T17:42:57.492Z,6.67
2018-12-20T17:45:26.151Z,6.30
2018-12-20T17:47:54.983Z,7.10
2018-12-20T17:50:23.736Z,7.23
2018-12-20T17:52:52.259Z,17.80
2018-12-20T17:55:20.791Z,20.97
2018-12-20T17:57:49.508Z,18.37
2018-12-20T18:00:18.554Z,14.87
2018-12-20T18:02:47.204Z,15.07
2018-12-20T18:05:15.755Z,13.77
2018-12-20T18:07:44.460Z,12.90
2018-12-20T18:10:13.160Z,18.00
2018-12-20T18:12:41.849Z,18.67
2018-12-20T18:15:10.956Z,20.47
2018-12-20T18:17:39.788Z,21.60
2018-12-20T18:20:09.273Z,22.97
2018-12-20T18:22:38.041Z,28.57
2018-12-20T18:25:07.047Z,28.20
2018-12-20T18:27:36.353Z,38.83
2018-12-20T18:30:09.333Z,73.90
2018-12-20T18:32:38.088Z,60.47
2018-12-20T18:35:06.919Z,59.70
2018-12-20T18:37:35.860Z,123.73
2018-12-20T18:40:07.142Z,72.67
2018-12-20T18:42:35.991Z,72.90
2018-12-20T18:45:07.162Z,59.57
2018-12-20T18:47:35.705Z,41.90
2018-12-20T18:50:06.496Z,35.17
2018-12-20T18:52:35.236Z,30.73
2018-12-20T18:55:05.538Z,26.93
2018-12-20T18:57:34.270Z,23.90
2018-12-20T19:00:03.287Z,22.10
2018-12-20T19:02:32.015Z,21.80
2018-12-20T19:05:00.769Z,21.23
2018-12-20T19:07:29.343Z,20.87
2018-12-20T19:09:58.234Z,21.60
2018-12-20T19:12:26.994Z,20.87
2018-12-20T19:14:55.797Z,21.90
2018-12-20T19:17:24.534Z,21.63
2018-12-20T19:19:56.296Z,20.03
2018-12-20T19:22:25.516Z,19.47
2018-12-20T19:24:54.439Z,18.90
2018-12-20T19:27:23.354Z,19.53
2018-12-20T19:29:51.969Z,36.73
2018-12-20T19:32:20.378Z,32.10
2018-12-20T19:34:49.314Z,42.90
2018-12-20T19:37:18.230Z,32.50
2018-12-20T19:39:49.136Z,26.90
2018-12-20T19:42:17.964Z,24.97
2018-12-20T19:44:46.798Z,22.33
2018-12-20T19:47:15.631Z,23.90
2018-12-20T19:49:44.467Z,21.10
2018-12-20T19:52:13.099Z,21.40
2018-12-20T19:54:47.972Z,21.57
2018-12-20T19:57:12.925Z,23.60
2018-12-20T19:59:41.951Z,22.87
2018-12-20T20:02:10.818Z,21.97
2018-12-20T20:04:39.545Z,22.97
2018-12-20T20:07:08.644Z,33.17
2018-12-20T20:09:37.396Z,118.73
2018-12-20T20:12:06.190Z,52.70
2018-12-20T20:14:34.932Z,42.77
2018-12-20T20:17:03.499Z,43.60
2018-12-20T20:19:32.293Z,48.70
2018-12-20T20:22:01.047Z,45.80
2018-12-20T20:24:29.757Z,46.80
2018-12-20T20:26:58.518Z,45.37
2018-12-20T20:29:27.068Z,53.63
2018-12-20T20:31:55.809Z,48.47
2018-12-20T20:34:24.515Z,43.40
2018-12-20T20:36:53.155Z,44.50
2018-12-20T20:39:22.005Z,43.23
2018-12-20T20:41:50.604Z,41.67
2018-12-20T20:44:19.339Z,41.67
2018-12-20T20:46:47.991Z,39.93
2018-12-20T20:49:16.999Z,39.73
2018-12-20T20:51:45.543Z,37.80
2018-12-20T20:54:14.287Z,38.40
2018-12-20T20:56:43.003Z,39.67
2018-12-20T20:59:11.522Z,39.40
2018-12-20T21:01:40.272Z,35.53
2018-12-20T21:04:09.027Z,35.27
2018-12-20T21:06:37.778Z,34.83
2018-12-20T21:09:07.867Z,32.60
2018-12-20T21:11:36.787Z,28.80
2018-12-20T21:14:05.645Z,29.73
2018-12-20T21:16:34.369Z,30.60
2018-12-20T21:19:03.132Z,35.97
2018-12-20T21:21:31.889Z,36.73
2018-12-20T21:24:00.593Z,35.20
2018-12-20T21:26:29.284Z,29.47
2018-12-20T21:28:58.133Z,28.13
2018-12-20T21:31:26.744Z,26.67
2018-12-20T21:33:55.529Z,26.30
2018-12-20T21:36:24.435Z,25.97
2018-12-20T21:38:53.268Z,24.23
2018-12-20T21:41:22.097Z,24.27
2018-12-20T21:43:51.023Z,23.37
2018-12-20T21:46:19.957Z,26.63
2018-12-20T21:48:48.694Z,24.97
2018-12-20T21:51:17.530Z,23.53
2018-12-20T21:53:54.690Z,23.80
2018-12-20T21:56:17.891Z,25.20
2018-12-20T21:58:46.683Z,26.67
2018-12-20T22:01:15.626Z,26.90
2018-12-20T22:03:44.535Z,24.10
2018-12-20T22:06:13.457Z,22.13
2018-12-20T22:08:42.394Z,22.23
2018-12-20T22:11:10.904Z,25.07
2018-12-20T22:13:39.413Z,20.67
2018-12-20T22:16:07.955Z,20.63
2018-12-20T22:18:36.948Z,21.33
2018-12-20T22:21:05.739Z,24.17
2018-12-20T22:23:34.598Z,29.37
2018-12-20T22:26:03.431Z,26.00
2018-12-20T22:28:32.263Z,24.87
2018-12-20T22:31:01.045Z,21.93
2018-12-20T22:33:29.577Z,23.03
2018-12-20T22:35:58.384Z,23.67
2018-12-20T22:38:27.395Z,25.60
2018-12-20T22:40:56.253Z,26.47
2018-12-20T22:43:25.063Z,26.00
2018-12-20T22:45:53.907Z,24.13
2018-12-20T22:48:22.677Z,22.40
2018-12-20T22:50:55.884Z,25.47
2018-12-20T22:53:22.357Z,25.67
2018-12-20T22:55:50.990Z,26.50
2018-12-20T22:58:19.703Z,22.73
2018-12-20T23:00:51.286Z,22.50
2018-12-20T23:03:20.235Z,23.70
2018-12-20T23:05:49.037Z,23.37
2018-12-20T23:08:17.600Z,19.50
2018-12-20T23:10:46.566Z,20.20
2018-12-20T23:13:15.370Z,19.70
2018-12-20T23:15:44.397Z,20.20
2018-12-20T23:18:13.312Z,21.97
2018-12-20T23:20:42.037Z,20.37
2018-12-20T23:23:10.892Z,20.63
2018-12-20T23:25:39.757Z,19.93
2018-12-20T23:28:08.586Z,16.50
2018-12-20T23:30:37.386Z,15.77
2018-12-20T23:33:06.221Z,15.90
2018-12-20T23:35:35.241Z,15.43
2018-12-20T23:38:04.276Z,15.87
2018-12-20T23:40:33.419Z,16.70
2018-12-20T23:43:02.110Z,17.17
2018-12-20T23:45:30.969Z,16.40
2018-12-20T23:47:59.804Z,14.50
2018-12-20T23:50:28.364Z,14.57
2018-12-20T23:52:57.072Z,14.23
2018-12-20T23:55:25.907Z,14.83
2018-12-20T23:57:54.673Z,15.00
